createdAt,value
2023-04-27T00:01:49.409Z,14.10
2023-04-27T00:04:23.657Z,13.50
2023-04-27T00:06:57.994Z,11.50
2023-04-27T00:09:32.244Z,18.10
2023-04-27T00:12:07.158Z,13.20
2023-04-27T00:14:41.363Z,11.70
2023-04-27T00:17:15.592Z,14.00
2023-04-27T00:19:50.229Z,16.90
2023-04-27T00:22:24.314Z,15.40
2023-04-27T00:24:58.527Z,15.80
2023-04-27T00:27:32.586Z,17.60
2023-04-27T00:30:08.355Z,20.70
2023-04-27T00:32:42.836Z,17.40
2023-04-27T00:35:17.291Z,20.10
2023-04-27T00:37:51.476Z,20.30
2023-04-27T00:40:26.446Z,12.50
2023-04-27T00:43:01.079Z,15.00
2023-04-27T00:45:44.002Z,16.70
2023-04-27T00:48:19.985Z,22.00
2023-04-27T00:50:54.403Z,16.10
2023-04-27T00:53:28.781Z,17.10
2023-04-27T00:56:03.552Z,12.30
2023-04-27T00:58:37.925Z,16.60
2023-04-27T01:01:16.796Z,16.30
2023-04-27T01:03:51.848Z,15.40
2023-04-27T01:06:28.266Z,16.70
2023-04-27T01:09:02.625Z,16.60
2023-04-27T01:11:37.355Z,17.20
2023-04-27T01:14:13.336Z,17.70
2023-04-27T01:16:48.072Z,15.40
2023-04-27T01:19:22.925Z,18.00
2023-04-27T01:21:57.918Z,17.60
2023-04-27T01:24:32.765Z,14.80
2023-04-27T01:27:06.967Z,21.20
2023-04-27T01:29:41.721Z,17.30
2023-04-27T01:32:17.812Z,16.40
2023-04-27T01:34:51.984Z,16.00
2023-04-27T01:37:26.059Z,14.60
2023-04-27T01:40:00.236Z,14.20
2023-04-27T01:42:36.131Z,15.50
2023-04-27T01:45:13.725Z,17.20
2023-04-27T01:47:47.932Z,16.90
2023-04-27T01:50:22.442Z,18.10
2023-04-27T01:52:56.577Z,17.10
2023-04-27T01:55:31.412Z,15.60
2023-04-27T01:58:05.653Z,19.00
2023-04-27T02:00:40.189Z,15.60
2023-04-27T02:03:14.607Z,15.10
2023-04-27T02:05:49.233Z,18.10
2023-04-27T02:08:23.642Z,17.60
2023-04-27T02:10:58.183Z,20.60
2023-04-27T02:13:32.414Z,15.40
2023-04-27T02:16:06.803Z,12.40
2023-04-27T02:18:41.825Z,16.00
2023-04-27T02:21:17.194Z,15.40
2023-04-27T02:23:51.965Z,16.00
2023-04-27T02:26:29.555Z,16.80
2023-04-27T02:29:04.878Z,20.40
2023-04-27T02:31:39.767Z,15.90
2023-04-27T02:34:13.941Z,15.60
2023-04-27T02:36:48.355Z,15.70
2023-04-27T02:39:22.683Z,15.90
2023-04-27T02:41:57.312Z,19.90
2023-04-27T02:44:32.181Z,19.20
2023-04-27T02:47:06.642Z,18.60
2023-04-27T02:49:41.344Z,16.50
2023-04-27T02:52:15.774Z,16.30
2023-04-27T02:54:50.121Z,15.90
2023-04-27T02:57:24.700Z,16.20
2023-04-27T02:59:59.060Z,20.40
2023-04-27T03:02:33.608Z,19.60
2023-04-27T03:05:09.799Z,18.90
2023-04-27T03:07:44.304Z,17.30
2023-04-27T03:10:18.687Z,16.50
2023-04-27T03:12:53.156Z,15.40
2023-04-27T03:15:29.275Z,19.60
2023-04-27T03:18:03.780Z,18.00
2023-04-27T03:20:39.874Z,15.20
2023-04-27T03:23:14.252Z,17.90
2023-04-27T03:25:49.403Z,16.90
2023-04-27T03:28:23.766Z,15.40
2023-04-27T03:31:06.084Z,19.20
2023-04-27T03:33:41.328Z,22.80
2023-04-27T03:36:15.949Z,22.50
2023-04-27T03:38:50.280Z,23.20
2023-04-27T03:41:24.562Z,20.70
2023-04-27T03:43:59.053Z,19.60
2023-04-27T03:46:33.335Z,21.80
2023-04-27T03:49:08.238Z,23.10
2023-04-27T03:51:43.020Z,27.70
2023-04-27T03:54:17.448Z,26.00
2023-04-27T03:56:52.535Z,24.10
2023-04-27T03:59:26.817Z,24.20
2023-04-27T04:02:01.501Z,21.50
2023-04-27T04:04:36.471Z,23.20
2023-04-27T04:07:11.000Z,21.80
2023-04-27T04:09:45.543Z,26.90
2023-04-27T04:12:19.682Z,26.40
2023-04-27T04:14:53.796Z,25.10
2023-04-27T04:17:28.233Z,18.10
2023-04-27T04:20:03.120Z,19.60
2023-04-27T04:22:37.328Z,22.10
2023-04-27T04:25:13.163Z,21.60
2023-04-27T04:27:49.806Z,22.60
2023-04-27T04:30:24.271Z,24.50
2023-04-27T04:32:58.792Z,21.90
2023-04-27T04:35:33.278Z,22.20
2023-04-27T04:38:08.691Z,24.40
2023-04-27T04:40:46.089Z,15.20
2023-04-27T04:43:21.565Z,18.30
2023-04-27T04:45:55.880Z,17.10
2023-04-27T04:48:30.477Z,17.30
2023-04-27T04:51:05.814Z,15.50
2023-04-27T04:53:40.348Z,18.60
2023-04-27T04:56:17.321Z,20.60
2023-04-27T04:58:51.496Z,19.90
2023-04-27T05:01:26.173Z,12.80
2023-04-27T05:04:01.432Z,15.30
2023-04-27T05:06:35.870Z,15.40
2023-04-27T05:09:10.925Z,17.50
2023-04-27T05:11:45.295Z,17.70
2023-04-27T05:14:19.759Z,13.80
2023-04-27T05:16:53.922Z,17.40
2023-04-27T05:19:29.801Z,14.60
2023-04-27T05:22:04.851Z,14.40
2023-04-27T05:24:39.719Z,15.00
2023-04-27T05:27:15.669Z,11.50
2023-04-27T05:29:50.306Z,14.10
2023-04-27T05:32:24.773Z,17.40
2023-04-27T05:34:59.105Z,15.70
2023-04-27T05:37:33.555Z,16.70
2023-04-27T05:40:10.465Z,19.20
2023-04-27T05:42:47.495Z,12.80
2023-04-27T05:45:22.642Z,11.50
2023-04-27T05:47:57.287Z,15.30
2023-04-27T05:50:32.082Z,18.10
2023-04-27T05:53:07.155Z,12.90
2023-04-27T05:55:41.852Z,14.00
2023-04-27T05:58:16.215Z,16.50
2023-04-27T06:00:51.405Z,16.30
2023-04-27T06:03:25.996Z,16.70
2023-04-27T06:06:02.608Z,19.70
2023-04-27T06:08:37.616Z,15.20
2023-04-27T06:11:12.176Z,12.50
2023-04-27T06:13:46.662Z,13.20
2023-04-27T06:16:21.714Z,13.90
2023-04-27T06:18:56.373Z,12.30
2023-04-27T06:21:34.235Z,15.10
2023-04-27T06:24:09.760Z,12.70
2023-04-27T06:26:44.014Z,13.10
2023-04-27T06:29:18.749Z,13.20
2023-04-27T06:31:53.231Z,11.70
2023-04-27T06:34:27.773Z,23.60
2023-04-27T06:37:02.498Z,23.30
2023-04-27T06:39:37.014Z,23.00
2023-04-27T06:42:11.678Z,27.90
2023-04-27T06:44:46.360Z,19.70
2023-04-27T06:47:21.296Z,17.10
2023-04-27T06:49:55.885Z,13.20
2023-04-27T06:52:32.710Z,11.90
2023-04-27T06:55:08.215Z,11.40
2023-04-27T06:57:42.774Z,10.90
2023-04-27T07:00:22.216Z,12.00
2023-04-27T07:02:56.783Z,12.20
2023-04-27T07:05:31.236Z,11.80
2023-04-27T07:08:08.476Z,11.10
2023-04-27T07:10:43.732Z,11.80
2023-04-27T07:13:18.472Z,11.20
2023-04-27T07:15:58.880Z,14.40
2023-04-27T07:18:33.512Z,12.00
2023-04-27T07:21:08.371Z,11.60
2023-04-27T07:23:44.089Z,11.10
2023-04-27T07:26:18.492Z,9.10
2023-04-27T07:28:53.023Z,9.20
2023-04-27T07:31:28.623Z,8.30
2023-04-27T07:34:04.008Z,9.40
2023-04-27T07:36:39.105Z,8.90
2023-04-27T07:39:13.462Z,7.60
2023-04-27T07:41:48.278Z,10.30
2023-04-27T07:44:25.219Z,11.30
2023-04-27T07:47:04.127Z,11.70
2023-04-27T07:49:38.403Z,9.30
2023-04-27T07:52:14.235Z,6.80
2023-04-27T07:54:48.426Z,11.20
2023-04-27T07:57:22.821Z,10.30
2023-04-27T07:59:57.952Z,10.20
2023-04-27T08:02:34.911Z,9.50
2023-04-27T08:05:12.538Z,8.90
2023-04-27T08:07:47.818Z,10.90
2023-04-27T08:10:22.463Z,8.70
2023-04-27T08:12:56.786Z,11.10
2023-04-27T08:15:32.612Z,8.00
2023-04-27T08:18:07.689Z,7.70
2023-04-27T08:20:42.211Z,13.20
2023-04-27T08:23:17.473Z,8.30
2023-04-27T08:25:52.389Z,8.50
2023-04-27T08:28:27.085Z,15.00
2023-04-27T08:31:01.998Z,12.10
2023-04-27T08:33:36.501Z,8.50
2023-04-27T08:36:12.027Z,9.00
2023-04-27T08:38:47.215Z,6.30
2023-04-27T08:41:26.010Z,7.10
2023-04-27T08:44:00.402Z,7.00
2023-04-27T08:46:36.177Z,8.20
2023-04-27T08:49:11.083Z,7.00
2023-04-27T08:51:45.939Z,6.50
2023-04-27T08:54:20.726Z,8.70
2023-04-27T08:56:55.435Z,6.40
2023-04-27T08:59:32.513Z,6.90
2023-04-27T09:02:09.489Z,8.10
2023-04-27T09:04:45.185Z,7.10
2023-04-27T09:07:21.372Z,8.10
2023-04-27T09:10:06.910Z,8.00
2023-04-27T09:12:42.301Z,9.00
2023-04-27T09:15:18.249Z,7.80
2023-04-27T09:17:59.029Z,8.00
2023-04-27T09:20:33.676Z,8.50
2023-04-27T09:23:08.343Z,7.40
2023-04-27T09:25:42.984Z,6.80
2023-04-27T09:28:20.904Z,6.20
2023-04-27T09:31:00.870Z,10.10
2023-04-27T09:33:37.206Z,6.50
2023-04-27T09:36:12.638Z,7.10
2023-04-27T09:38:48.119Z,7.10
2023-04-27T09:41:23.893Z,6.10
2023-04-27T09:44:01.411Z,5.40
2023-04-27T09:46:38.745Z,6.10
2023-04-27T09:49:15.425Z,5.70
2023-04-27T09:51:50.210Z,8.00
2023-04-27T09:54:28.093Z,8.00
2023-04-27T09:57:19.958Z,6.30
2023-04-27T10:00:11.127Z,6.80
2023-04-27T10:03:07.818Z,5.50
2023-04-27T10:06:36.530Z,6.30
2023-04-27T10:09:15.413Z,4.40
2023-04-27T10:11:52.533Z,5.10
2023-04-27T10:14:31.747Z,4.30
2023-04-27T10:17:14.186Z,5.00
2023-04-27T10:20:00.254Z,4.50
2023-04-27T10:22:46.321Z,5.60
2023-04-27T10:25:26.913Z,7.40
2023-04-27T10:28:03.900Z,6.00
2023-04-27T10:30:40.511Z,6.70
2023-04-27T10:33:20.077Z,6.60
2023-04-27T10:36:01.824Z,5.90
2023-04-27T10:38:41.741Z,7.40
2023-04-27T10:41:19.776Z,5.90
2023-04-27T10:43:54.406Z,6.10
2023-04-27T10:46:28.801Z,4.70
2023-04-27T10:49:06.759Z,6.10
2023-04-27T10:51:42.518Z,6.40
2023-04-27T10:54:17.529Z,4.30
2023-04-27T10:56:53.367Z,4.60
2023-04-27T10:59:28.229Z,4.20
2023-04-27T11:02:04.521Z,5.10
2023-04-27T11:04:44.541Z,7.90
2023-04-27T11:07:29.926Z,5.70
2023-04-27T11:10:05.352Z,5.40
2023-04-27T11:12:41.855Z,10.70
2023-04-27T11:15:17.780Z,134.50
2023-04-27T11:17:52.851Z,55.70
2023-04-27T11:20:31.442Z,25.50
2023-04-27T11:23:06.112Z,6.70
2023-04-27T11:25:40.923Z,6.60
2023-04-27T11:28:24.405Z,6.30
2023-04-27T11:31:04.553Z,5.10
2023-04-27T11:33:40.396Z,7.20
2023-04-27T11:36:27.240Z,7.60
2023-04-27T11:39:06.485Z,7.70
2023-04-27T11:41:46.328Z,4.90
2023-04-27T11:44:20.697Z,7.10
2023-04-27T11:46:55.089Z,7.60
2023-04-27T11:49:31.207Z,6.90
2023-04-27T11:52:05.929Z,5.10
2023-04-27T11:54:47.690Z,6.90
2023-04-27T11:57:26.978Z,5.50
2023-04-27T12:00:09.184Z,9.70
2023-04-27T12:02:48.776Z,5.10
2023-04-27T12:05:23.910Z,4.70
2023-04-27T12:07:58.910Z,4.40
2023-04-27T12:10:33.215Z,7.90
2023-04-27T12:13:09.856Z,5.00
2023-04-27T12:15:44.914Z,4.60
2023-04-27T12:18:27.325Z,4.20
2023-04-27T12:21:08.500Z,6.40
2023-04-27T12:23:43.536Z,5.40
2023-04-27T12:26:18.474Z,6.50
2023-04-27T12:28:53.344Z,5.60
2023-04-27T12:31:28.575Z,5.10
2023-04-27T12:34:03.047Z,4.90
2023-04-27T12:36:37.986Z,5.80
2023-04-27T12:39:21.340Z,6.20
2023-04-27T12:41:57.097Z,6.30
2023-04-27T12:44:31.831Z,5.60
2023-04-27T12:47:06.452Z,7.20
2023-04-27T12:49:41.162Z,6.70
2023-04-27T12:52:15.874Z,7.00
2023-04-27T12:54:51.331Z,6.00
2023-04-27T12:57:25.672Z,5.60
2023-04-27T13:00:01.692Z,6.00
2023-04-27T13:02:37.131Z,6.10
2023-04-27T13:05:13.303Z,3.30
2023-04-27T13:07:48.382Z,4.30
2023-04-27T13:10:22.783Z,5.80
2023-04-27T13:12:57.958Z,6.20
2023-04-27T13:15:33.885Z,5.90
2023-04-27T13:18:08.371Z,4.90
2023-04-27T13:20:43.167Z,5.70
2023-04-27T13:23:18.329Z,5.40
2023-04-27T13:25:53.787Z,5.70
2023-04-27T13:28:28.269Z,5.00
2023-04-27T13:31:04.140Z,5.30
2023-04-27T13:33:44.419Z,5.80
2023-04-27T13:36:21.128Z,5.30
2023-04-27T13:38:55.415Z,6.10
2023-04-27T13:41:29.896Z,6.20
2023-04-27T13:44:04.403Z,6.60
2023-04-27T13:46:39.305Z,4.30
2023-04-27T13:49:14.827Z,6.60
2023-04-27T13:51:49.254Z,8.40
2023-04-27T13:54:23.654Z,6.30
2023-04-27T13:56:58.245Z,6.40
2023-04-27T13:59:32.576Z,5.80
2023-04-27T14:02:09.039Z,5.80
2023-04-27T14:04:43.391Z,5.80
2023-04-27T14:07:19.042Z,8.40
2023-04-27T14:09:53.648Z,4.70
2023-04-27T14:12:28.117Z,5.00
2023-04-27T14:15:03.286Z,6.40
2023-04-27T14:17:37.573Z,4.40
2023-04-27T14:20:13.870Z,5.70
2023-04-27T14:22:48.885Z,3.90
2023-04-27T14:25:23.822Z,6.00
2023-04-27T14:27:58.439Z,6.60
2023-04-27T14:30:34.163Z,8.00
2023-04-27T14:33:08.934Z,6.20
2023-04-27T14:35:43.747Z,5.50
2023-04-27T14:38:18.269Z,8.70
2023-04-27T14:40:53.240Z,8.40
2023-04-27T14:43:27.574Z,5.60
2023-04-27T14:46:19.286Z,5.50
2023-04-27T14:48:56.460Z,6.20
2023-04-27T14:51:32.552Z,5.60
2023-04-27T14:54:09.239Z,4.60
2023-04-27T14:56:44.089Z,5.80
2023-04-27T14:59:18.455Z,5.70
2023-04-27T15:01:53.371Z,5.10
2023-04-27T15:04:28.550Z,6.60
2023-04-27T15:07:03.201Z,4.90
2023-04-27T15:09:38.803Z,5.60
2023-04-27T15:12:14.538Z,5.40
2023-04-27T15:14:50.271Z,6.10
2023-04-27T15:17:25.036Z,6.40
2023-04-27T15:19:59.430Z,4.10
2023-04-27T15:22:33.664Z,6.40
2023-04-27T15:25:10.077Z,5.00
2023-04-27T15:27:44.453Z,5.80
2023-04-27T15:30:19.084Z,5.80
2023-04-27T15:32:54.928Z,5.90
2023-04-27T15:35:29.202Z,5.70
2023-04-27T15:38:03.848Z,5.70
2023-04-27T15:40:38.567Z,5.60
2023-04-27T15:43:12.829Z,6.20
2023-04-27T15:45:49.640Z,7.90
2023-04-27T15:48:24.000Z,5.20
2023-04-27T15:50:58.224Z,5.70
2023-04-27T15:53:32.570Z,5.40
2023-04-27T15:56:07.156Z,5.80
2023-04-27T15:58:41.428Z,5.90
2023-04-27T16:01:15.697Z,7.00
2023-04-27T16:03:50.209Z,6.20
2023-04-27T16:06:24.641Z,5.90
2023-04-27T16:08:59.049Z,6.20
2023-04-27T16:11:33.785Z,4.90
2023-04-27T16:14:09.688Z,7.30
2023-04-27T16:16:43.898Z,6.50
2023-04-27T16:19:18.912Z,8.00
2023-04-27T16:21:53.387Z,7.30
2023-04-27T16:24:27.885Z,6.10
2023-04-27T16:27:03.685Z,5.60
2023-04-27T16:29:38.022Z,7.30
2023-04-27T16:32:12.444Z,8.40
2023-04-27T16:34:46.966Z,7.90
2023-04-27T16:37:21.312Z,8.30
2023-04-27T16:39:59.228Z,7.60
2023-04-27T16:42:33.552Z,7.80
2023-04-27T16:45:10.955Z,8.20
2023-04-27T16:47:46.203Z,7.60
2023-04-27T16:50:20.567Z,6.30
2023-04-27T16:52:55.174Z,7.50
2023-04-27T16:55:29.498Z,5.80
2023-04-27T16:58:04.218Z,9.50
2023-04-27T17:00:39.662Z,8.80
2023-04-27T17:03:13.998Z,9.60
2023-04-27T17:05:48.642Z,8.40
2023-04-27T17:08:22.934Z,5.50
2023-04-27T17:10:57.695Z,7.50
2023-04-27T17:13:31.947Z,8.10
2023-04-27T17:16:06.887Z,8.00
2023-04-27T17:18:41.238Z,6.10
2023-04-27T17:21:16.821Z,5.50
2023-04-27T17:23:53.219Z,9.90
2023-04-27T17:26:27.689Z,9.10
2023-04-27T17:29:02.178Z,11.90
2023-04-27T17:31:36.443Z,10.00
2023-04-27T17:34:10.748Z,7.10
2023-04-27T17:36:45.138Z,8.00
2023-04-27T17:39:20.606Z,7.10
2023-04-27T17:41:54.938Z,7.20
2023-04-27T17:44:29.211Z,6.40
2023-04-27T17:47:03.772Z,7.20
2023-04-27T17:49:38.279Z,6.50
2023-04-27T17:52:14.222Z,6.30
2023-04-27T17:54:49.676Z,6.00
2023-04-27T17:57:24.536Z,5.10
2023-04-27T18:00:00.366Z,5.00
2023-04-27T18:02:34.785Z,8.70
2023-04-27T18:05:11.928Z,6.70
2023-04-27T18:07:47.577Z,7.80
2023-04-27T18:10:22.166Z,6.70
2023-04-27T18:12:56.855Z,6.50
2023-04-27T18:15:32.104Z,6.90
2023-04-27T18:18:07.188Z,6.90
2023-04-27T18:20:44.869Z,5.90
2023-04-27T18:23:19.713Z,6.00
2023-04-27T18:25:55.685Z,7.10
2023-04-27T18:28:29.923Z,6.70
2023-04-27T18:31:04.774Z,6.30
2023-04-27T18:33:39.086Z,7.80
2023-04-27T18:36:14.076Z,6.40
2023-04-27T18:38:48.610Z,9.20
2023-04-27T18:41:23.873Z,5.20
2023-04-27T18:44:06.256Z,6.40
2023-04-27T18:46:40.975Z,7.20
2023-04-27T18:49:15.611Z,7.80
2023-04-27T18:51:50.077Z,7.20
2023-04-27T18:54:24.354Z,6.80
2023-04-27T18:56:58.799Z,8.00
2023-04-27T18:59:33.101Z,10.80
2023-04-27T19:02:09.412Z,8.50
2023-04-27T19:04:52.838Z,6.40
2023-04-27T19:07:32.569Z,8.10
2023-04-27T19:10:08.514Z,10.10
2023-04-27T19:12:43.503Z,16.20
2023-04-27T19:15:18.043Z,15.80
2023-04-27T19:18:02.855Z,27.80
2023-04-27T19:20:44.789Z,42.50
2023-04-27T19:23:20.381Z,43.60
2023-04-27T19:25:57.669Z,36.20
2023-04-27T19:28:40.731Z,48.40
2023-04-27T19:31:15.554Z,56.10
2023-04-27T19:33:55.404Z,59.30
2023-04-27T19:36:30.215Z,52.80
2023-04-27T19:39:06.348Z,51.90
2023-04-27T19:41:42.111Z,50.30
2023-04-27T19:44:16.525Z,53.40
2023-04-27T19:46:50.959Z,48.10
2023-04-27T19:49:25.572Z,39.20
2023-04-27T19:51:59.989Z,35.20
2023-04-27T19:54:36.037Z,27.40
2023-04-27T19:57:10.805Z,25.70
2023-04-27T19:59:45.248Z,19.90
2023-04-27T20:02:20.100Z,22.90
2023-04-27T20:04:54.807Z,22.80
2023-04-27T20:07:29.375Z,22.20
2023-04-27T20:10:04.592Z,24.60
2023-04-27T20:12:52.053Z,22.90
2023-04-27T20:15:30.464Z,17.80
2023-04-27T20:18:04.947Z,23.30
2023-04-27T20:20:42.063Z,19.50
2023-04-27T20:23:16.447Z,18.20
2023-04-27T20:25:51.744Z,19.20
2023-04-27T20:28:28.010Z,35.30
2023-04-27T20:31:04.210Z,50.60
2023-04-27T20:33:38.608Z,38.20
2023-04-27T20:36:17.851Z,40.60
2023-04-27T20:38:52.736Z,44.30
2023-04-27T20:41:27.089Z,34.10
2023-04-27T20:44:02.337Z,22.70
2023-04-27T20:46:36.996Z,26.50
2023-04-27T20:49:12.236Z,30.00
2023-04-27T20:51:48.072Z,38.70
2023-04-27T20:54:22.539Z,34.50
2023-04-27T20:56:56.973Z,52.50
2023-04-27T20:59:31.441Z,72.50
2023-04-27T21:02:08.013Z,71.20
2023-04-27T21:04:42.804Z,98.60
2023-04-27T21:07:20.157Z,93.30
2023-04-27T21:09:54.593Z,101.30
2023-04-27T21:12:28.909Z,116.90
2023-04-27T21:15:03.421Z,132.60
2023-04-27T21:17:38.090Z,119.20
2023-04-27T21:20:14.297Z,126.20
2023-04-27T21:22:48.607Z,112.40
2023-04-27T21:25:23.839Z,110.40
2023-04-27T21:27:58.185Z,106.20
2023-04-27T21:30:32.728Z,104.60
2023-04-27T21:33:08.235Z,110.80
2023-04-27T21:35:42.456Z,120.10
2023-04-27T21:38:16.930Z,112.40
2023-04-27T21:40:51.448Z,109.50
2023-04-27T21:43:26.185Z,107.40
2023-04-27T21:46:00.380Z,102.70
2023-04-27T21:48:34.564Z,108.50
2023-04-27T21:51:08.935Z,110.60
2023-04-27T21:53:43.140Z,118.50
2023-04-27T21:56:17.410Z,111.50
2023-04-27T21:58:52.141Z,105.20
2023-04-27T22:01:27.262Z,107.60
2023-04-27T22:04:02.443Z,108.40
2023-04-27T22:06:36.666Z,104.20
2023-04-27T22:09:12.223Z,90.40
2023-04-27T22:11:46.661Z,76.70
2023-04-27T22:14:21.038Z,70.50
2023-04-27T22:16:55.523Z,72.40
2023-04-27T22:19:30.572Z,64.10
2023-04-27T22:22:05.125Z,74.20
2023-04-27T22:24:39.799Z,69.10
2023-04-27T22:27:14.019Z,73.50
2023-04-27T22:29:48.175Z,75.20
2023-04-27T22:32:22.277Z,77.90
2023-04-27T22:34:56.502Z,71.00
2023-04-27T22:37:31.123Z,74.60
2023-04-27T22:40:06.563Z,72.10
2023-04-27T22:42:41.481Z,71.20
2023-04-27T22:45:16.661Z,69.50
2023-04-27T22:47:51.008Z,65.80
2023-04-27T22:50:25.564Z,68.90
2023-04-27T22:53:00.671Z,51.90
2023-04-27T22:55:35.165Z,46.10
2023-04-27T22:58:09.285Z,40.10
2023-04-27T23:00:45.163Z,40.50
2023-04-27T23:03:21.003Z,32.20
2023-04-27T23:05:55.309Z,34.30
2023-04-27T23:08:29.659Z,35.40
2023-04-27T23:11:03.838Z,32.70
2023-04-27T23:13:38.147Z,32.80
2023-04-27T23:16:14.884Z,31.90
2023-04-27T23:18:49.060Z,30.90
2023-04-27T23:21:23.271Z,34.70
2023-04-27T23:23:57.473Z,32.60
2023-04-27T23:26:31.684Z,28.10
2023-04-27T23:29:05.950Z,35.60
2023-04-27T23:31:40.412Z,40.30
2023-04-27T23:34:14.912Z,42.70
2023-04-27T23:36:49.277Z,43.30
2023-04-27T23:39:23.449Z,40.70
2023-04-27T23:41:58.242Z,51.20
2023-04-27T23:44:32.414Z,48.60
2023-04-27T23:47:07.657Z,42.90
2023-04-27T23:49:43.884Z,43.30
2023-04-27T23:52:18.059Z,41.70
2023-04-27T23:54:52.367Z,44.40
2023-04-27T23:57:26.661Z,40.10
